SKVV/VVC METAR and TAF weather

Enter ICAO airport designator
Station Type Date Time Source
SKVV METAR 2019/05/25 14:00 UTC NOAA

SKVV 251400Z 30006KT 2000 RA BKN005 22/22 A3000


Station Type Date Time Source
SKVV Decoded METAR 2019/05/25 14:00 UTC NOAA

Villavicencio / Vanguardia, Colombia (SKVV) 04-10N 073-37W 431M
May 25, 2019 - 10:00 AM EDT / 2019.05.25 1400 UTC
Wind: from the WNW (300 degrees) at 7 MPH (6 KT):0
Visibility: 1 mile(s):0
Sky conditions: mostly cloudy
Weather: rain
Temperature: 71 F (22 C)
Dew Point: 71 F (22 C)
Relative Humidity: 100%
Pressure (altimeter): 30 in. Hg (1015 hPa)
ob: SKVV 251400Z 30006KT 2000 RA BKN005 22/22 A3000
cycle: 14

Station Type Date Time Source
SKVV TAF UTC NOAA

Error!

Example: see airport list